sensor_id;sensor_type;location;lat;lon;timestamp;temperature;humidity
4637;DHT22;2331;48.806;9.140;2023-04-15T00:01:12;9.00;1.00
4637;DHT22;2331;48.806;9.140;2023-04-15T00:03:44;9.00;1.00
4637;DHT22;2331;48.806;9.140;2023-04-15T00:06:11;8.90;1.00
4637;DHT22;2331;48.806;9.140;2023-04-15T00:08:39;8.90;1.00
4637;DHT22;2331;48.806;9.140;2023-04-15T00:11:06;8.80;1.00
4637;DHT22;2331;48.806;9.140;2023-04-15T00:13:33;8.80;1.00
4637;DHT22;2331;48.806;9.140;2023-04-15T00:16:00;8.80;1.00
4637;DHT22;2331;48.806;9.140;2023-04-15T00:18:27;8.80;1.00
4637;DHT22;2331;48.806;9.140;2023-04-15T00:20:55;8.80;1.00
4637;DHT22;2331;48.806;9.140;2023-04-15T00:23:22;8.70;1.00
4637;DHT22;2331;48.806;9.140;2023-04-15T00:25:48;8.70;1.00
4637;DHT22;2331;48.806;9.140;2023-04-15T00:28:16;8.70;1.00
4637;DHT22;2331;48.806;9.140;2023-04-15T00:30:43;8.60;1.00
4637;DHT22;2331;48.806;9.140;2023-04-15T00:33:10;8.60;1.00
4637;DHT22;2331;48.806;9.140;2023-04-15T00:35:37;8.50;1.00
4637;DHT22;2331;48.806;9.140;2023-04-15T00:38:06;8.50;1.00
4637;DHT22;2331;48.806;9.140;2023-04-15T00:40:33;8.50;1.00
4637;DHT22;2331;48.806;9.140;2023-04-15T00:43:00;8.50;1.00
4637;DHT22;2331;48.806;9.140;2023-04-15T00:45:27;8.40;1.00
4637;DHT22;2331;48.806;9.140;2023-04-15T00:47:54;8.40;1.00
4637;DHT22;2331;48.806;9.140;2023-04-15T00:50:21;8.40;1.00
4637;DHT22;2331;48.806;9.140;2023-04-15T00:52:48;8.40;1.00
4637;DHT22;2331;48.806;9.140;2023-04-15T00:55:16;8.40;1.00
4637;DHT22;2331;48.806;9.140;2023-04-15T00:57:43;8.40;1.00
4637;DHT22;2331;48.806;9.140;2023-04-15T01:00:11;8.30;1.00
4637;DHT22;2331;48.806;9.140;2023-04-15T01:02:38;8.20;1.00
4637;DHT22;2331;48.806;9.140;2023-04-15T01:05:05;8.20;1.00
4637;DHT22;2331;48.806;9.140;2023-04-15T01:07:32;8.20;1.00
4637;DHT22;2331;48.806;9.140;2023-04-15T01:09:59;8.30;1.00
4637;DHT22;2331;48.806;9.140;2023-04-15T01:12:31;8.20;1.00
4637;DHT22;2331;48.806;9.140;2023-04-15T01:14:59;8.20;1.00
4637;DHT22;2331;48.806;9.140;2023-04-15T01:17:27;8.20;1.00
4637;DHT22;2331;48.806;9.140;2023-04-15T01:19:55;8.10;1.00
4637;DHT22;2331;48.806;9.140;2023-04-15T01:22:22;8.10;1.00
4637;DHT22;2331;48.806;9.140;2023-04-15T01:24:54;8.00;1.00
4637;DHT22;2331;48.806;9.140;2023-04-15T01:27:25;8.00;1.00
4637;DHT22;2331;48.806;9.140;2023-04-15T01:29:51;8.00;1.00
4637;DHT22;2331;48.806;9.140;2023-04-15T01:32:18;7.90;1.00
4637;DHT22;2331;48.806;9.140;2023-04-15T01:34:45;7.90;1.00
4637;DHT22;2331;48.806;9.140;2023-04-15T01:37:12;7.90;1.00
4637;DHT22;2331;48.806;9.140;2023-04-15T01:39:38;7.90;1.00
4637;DHT22;2331;48.806;9.140;2023-04-15T01:42:05;7.90;1.00
4637;DHT22;2331;48.806;9.140;2023-04-15T01:44:33;7.90;1.00
4637;DHT22;2331;48.806;9.140;2023-04-15T01:47:00;7.80;1.00
4637;DHT22;2331;48.806;9.140;2023-04-15T01:49:27;7.80;1.00
4637;DHT22;2331;48.806;9.140;2023-04-15T01:51:54;7.70;1.00
4637;DHT22;2331;48.806;9.140;2023-04-15T01:54:21;7.70;1.00
4637;DHT22;2331;48.806;9.140;2023-04-15T01:56:48;7.70;1.00
4637;DHT22;2331;48.806;9.140;2023-04-15T01:59:15;7.70;1.00
4637;DHT22;2331;48.806;9.140;2023-04-15T02:01:43;7.70;1.00
4637;DHT22;2331;48.806;9.140;2023-04-15T02:04:11;7.60;1.00
4637;DHT22;2331;48.806;9.140;2023-04-15T02:06:41;7.50;1.00
4637;DHT22;2331;48.806;9.140;2023-04-15T02:09:08;7.50;1.00
4637;DHT22;2331;48.806;9.140;2023-04-15T02:11:35;7.60;1.00
4637;DHT22;2331;48.806;9.140;2023-04-15T02:14:03;7.50;1.00
4637;DHT22;2331;48.806;9.140;2023-04-15T02:16:31;7.50;1.00
4637;DHT22;2331;48.806;9.140;2023-04-15T02:19:00;7.50;1.00
4637;DHT22;2331;48.806;9.140;2023-04-15T02:21:29;7.40;1.00
4637;DHT22;2331;48.806;9.140;2023-04-15T02:23:56;7.40;1.00
4637;DHT22;2331;48.806;9.140;2023-04-15T02:26:22;7.40;1.00
4637;DHT22;2331;48.806;9.140;2023-04-15T02:28:50;7.40;1.00
4637;DHT22;2331;48.806;9.140;2023-04-15T02:31:17;7.40;1.00
4637;DHT22;2331;48.806;9.140;2023-04-15T02:33:44;7.40;1.00
4637;DHT22;2331;48.806;9.140;2023-04-15T02:36:12;7.40;1.00
4637;DHT22;2331;48.806;9.140;2023-04-15T02:38:40;7.40;1.00
4637;DHT22;2331;48.806;9.140;2023-04-15T02:41:08;7.40;1.00
4637;DHT22;2331;48.806;9.140;2023-04-15T02:43:35;7.40;1.00
4637;DHT22;2331;48.806;9.140;2023-04-15T02:46:02;7.40;1.00
4637;DHT22;2331;48.806;9.140;2023-04-15T02:48:29;7.40;1.00
4637;DHT22;2331;48.806;9.140;2023-04-15T02:51:10;7.30;1.00
4637;DHT22;2331;48.806;9.140;2023-04-15T02:53:38;7.30;1.00
4637;DHT22;2331;48.806;9.140;2023-04-15T02:56:06;7.30;1.00
4637;DHT22;2331;48.806;9.140;2023-04-15T02:58:33;7.20;1.00
4637;DHT22;2331;48.806;9.140;2023-04-15T03:01:01;7.20;1.00
4637;DHT22;2331;48.806;9.140;2023-04-15T03:03:28;7.20;1.00
4637;DHT22;2331;48.806;9.140;2023-04-15T03:05:55;7.10;1.00
4637;DHT22;2331;48.806;9.140;2023-04-15T03:08:22;7.10;1.00
4637;DHT22;2331;48.806;9.140;2023-04-15T03:10:50;7.10;1.00
4637;DHT22;2331;48.806;9.140;2023-04-15T03:13:18;7.10;1.00
4637;DHT22;2331;48.806;9.140;2023-04-15T03:15:45;7.00;1.00
4637;DHT22;2331;48.806;9.140;2023-04-15T03:18:12;6.90;1.00
4637;DHT22;2331;48.806;9.140;2023-04-15T03:20:39;6.90;1.00
4637;DHT22;2331;48.806;9.140;2023-04-15T03:23:06;6.90;1.00
4637;DHT22;2331;48.806;9.140;2023-04-15T03:25:35;6.90;1.00
4637;DHT22;2331;48.806;9.140;2023-04-15T03:28:04;6.90;1.00
4637;DHT22;2331;48.806;9.140;2023-04-15T03:30:31;6.90;1.00
4637;DHT22;2331;48.806;9.140;2023-04-15T03:32:57;6.90;1.00
4637;DHT22;2331;48.806;9.140;2023-04-15T03:35:24;6.90;1.00
4637;DHT22;2331;48.806;9.140;2023-04-15T03:37:51;6.90;1.00
4637;DHT22;2331;48.806;9.140;2023-04-15T03:40:18;6.90;1.00
4637;DHT22;2331;48.806;9.140;2023-04-15T03:42:45;6.80;1.00
4637;DHT22;2331;48.806;9.140;2023-04-15T03:45:13;6.80;1.00
4637;DHT22;2331;48.806;9.140;2023-04-15T03:47:40;6.70;1.00
4637;DHT22;2331;48.806;9.140;2023-04-15T03:50:07;6.80;1.00
4637;DHT22;2331;48.806;9.140;2023-04-15T03:52:34;6.80;1.00
4637;DHT22;2331;48.806;9.140;2023-04-15T03:55:01;6.70;1.00
4637;DHT22;2331;48.806;9.140;2023-04-15T03:57:27;6.70;1.00
4637;DHT22;2331;48.806;9.140;2023-04-15T03:59:54;6.70;1.00
4637;DHT22;2331;48.806;9.140;2023-04-15T04:02:22;6.80;1.00
4637;DHT22;2331;48.806;9.140;2023-04-15T04:04:49;6.70;1.00
4637;DHT22;2331;48.806;9.140;2023-04-15T04:07:17;6.80;1.00
4637;DHT22;2331;48.806;9.140;2023-04-15T04:09:44;6.70;1.00
4637;DHT22;2331;48.806;9.140;2023-04-15T04:12:10;6.80;1.00
4637;DHT22;2331;48.806;9.140;2023-04-15T04:14:37;6.60;1.00
4637;DHT22;2331;48.806;9.140;2023-04-15T04:17:04;6.60;1.00
4637;DHT22;2331;48.806;9.140;2023-04-15T04:19:33;6.60;1.00
4637;DHT22;2331;48.806;9.140;2023-04-15T04:22:00;6.70;1.00
4637;DHT22;2331;48.806;9.140;2023-04-15T04:24:26;6.60;1.00
4637;DHT22;2331;48.806;9.140;2023-04-15T04:26:53;6.60;1.00
4637;DHT22;2331;48.806;9.140;2023-04-15T04:29:21;6.60;1.00
4637;DHT22;2331;48.806;9.140;2023-04-15T04:31:47;6.60;1.00
4637;DHT22;2331;48.806;9.140;2023-04-15T04:34:14;6.60;1.00
4637;DHT22;2331;48.806;9.140;2023-04-15T04:36:42;6.50;1.00
4637;DHT22;2331;48.806;9.140;2023-04-15T04:39:09;6.60;1.00
4637;DHT22;2331;48.806;9.140;2023-04-15T04:41:35;6.60;1.00
4637;DHT22;2331;48.806;9.140;2023-04-15T04:44:02;6.60;1.00
4637;DHT22;2331;48.806;9.140;2023-04-15T04:46:29;6.50;1.00
4637;DHT22;2331;48.806;9.140;2023-04-15T04:48:56;6.60;1.00
4637;DHT22;2331;48.806;9.140;2023-04-15T04:51:22;6.50;1.00
4637;DHT22;2331;48.806;9.140;2023-04-15T04:53:51;6.50;1.00
4637;DHT22;2331;48.806;9.140;2023-04-15T04:56:18;6.50;1.00
4637;DHT22;2331;48.806;9.140;2023-04-15T04:58:44;6.50;1.00
4637;DHT22;2331;48.806;9.140;2023-04-15T05:01:11;6.50;1.00
4637;DHT22;2331;48.806;9.140;2023-04-15T05:03:38;6.50;1.00
4637;DHT22;2331;48.806;9.140;2023-04-15T05:06:05;6.50;1.00
4637;DHT22;2331;48.806;9.140;2023-04-15T05:08:33;6.50;1.00
4637;DHT22;2331;48.806;9.140;2023-04-15T05:11:01;6.50;1.00
4637;DHT22;2331;48.806;9.140;2023-04-15T05:13:28;6.50;1.00
4637;DHT22;2331;48.806;9.140;2023-04-15T05:15:56;6.50;1.00
4637;DHT22;2331;48.806;9.140;2023-04-15T05:18:23;6.50;1.00
4637;DHT22;2331;48.806;9.140;2023-04-15T05:20:50;6.50;1.00
4637;DHT22;2331;48.806;9.140;2023-04-15T05:23:16;6.50;1.00
4637;DHT22;2331;48.806;9.140;2023-04-15T05:25:43;6.40;1.00
4637;DHT22;2331;48.806;9.140;2023-04-15T05:28:11;6.40;1.00
4637;DHT22;2331;48.806;9.140;2023-04-15T05:30:38;6.40;1.00
4637;DHT22;2331;48.806;9.140;2023-04-15T05:33:05;6.40;1.00
4637;DHT22;2331;48.806;9.140;2023-04-15T05:35:32;6.50;1.00
4637;DHT22;2331;48.806;9.140;2023-04-15T05:37:59;6.50;1.00
4637;DHT22;2331;48.806;9.140;2023-04-15T05:40:26;6.50;1.00
4637;DHT22;2331;48.806;9.140;2023-04-15T05:42:52;6.50;1.00
4637;DHT22;2331;48.806;9.140;2023-04-15T05:45:21;6.50;1.00
4637;DHT22;2331;48.806;9.140;2023-04-15T05:47:47;6.60;1.00
4637;DHT22;2331;48.806;9.140;2023-04-15T05:50:15;6.60;1.00
4637;DHT22;2331;48.806;9.140;2023-04-15T05:52:42;6.60;1.00
4637;DHT22;2331;48.806;9.140;2023-04-15T05:55:10;6.70;1.00
4637;DHT22;2331;48.806;9.140;2023-04-15T05:57:37;6.70;1.00
4637;DHT22;2331;48.806;9.140;2023-04-15T06:00:04;6.80;1.00
4637;DHT22;2331;48.806;9.140;2023-04-15T06:02:33;6.80;1.00
4637;DHT22;2331;48.806;9.140;2023-04-15T06:05:00;6.80;1.00
4637;DHT22;2331;48.806;9.140;2023-04-15T06:07:26;6.80;1.00
4637;DHT22;2331;48.806;9.140;2023-04-15T06:09:53;6.80;1.00
4637;DHT22;2331;48.806;9.140;2023-04-15T06:12:20;7.00;1.00
4637;DHT22;2331;48.806;9.140;2023-04-15T06:14:46;7.00;1.00
4637;DHT22;2331;48.806;9.140;2023-04-15T06:17:13;7.00;1.00
4637;DHT22;2331;48.806;9.140;2023-04-15T06:19:44;7.00;1.00
4637;DHT22;2331;48.806;9.140;2023-04-15T06:22:10;7.10;1.00
4637;DHT22;2331;48.806;9.140;2023-04-15T06:24:37;7.20;1.00
4637;DHT22;2331;48.806;9.140;2023-04-15T06:27:04;7.20;1.00
4637;DHT22;2331;48.806;9.140;2023-04-15T06:29:30;7.30;1.00
4637;DHT22;2331;48.806;9.140;2023-04-15T06:31:57;7.30;1.00
4637;DHT22;2331;48.806;9.140;2023-04-15T06:34:24;7.40;1.00
4637;DHT22;2331;48.806;9.140;2023-04-15T06:36:53;7.40;1.00
4637;DHT22;2331;48.806;9.140;2023-04-15T06:39:19;7.50;1.00
4637;DHT22;2331;48.806;9.140;2023-04-15T06:41:46;7.60;1.00
4637;DHT22;2331;48.806;9.140;2023-04-15T06:44:13;7.60;1.00
4637;DHT22;2331;48.806;9.140;2023-04-15T06:46:40;7.70;1.00
4637;DHT22;2331;48.806;9.140;2023-04-15T06:49:07;7.80;1.00
4637;DHT22;2331;48.806;9.140;2023-04-15T06:51:34;7.80;1.00
4637;DHT22;2331;48.806;9.140;2023-04-15T06:54:02;7.90;1.00
4637;DHT22;2331;48.806;9.140;2023-04-15T06:56:30;8.00;1.00
4637;DHT22;2331;48.806;9.140;2023-04-15T06:58:57;8.00;1.00
4637;DHT22;2331;48.806;9.140;2023-04-15T07:01:24;8.10;1.00
4637;DHT22;2331;48.806;9.140;2023-04-15T07:03:51;8.10;1.00
4637;DHT22;2331;48.806;9.140;2023-04-15T07:06:17;8.20;1.00
4637;DHT22;2331;48.806;9.140;2023-04-15T07:08:44;8.30;1.00
4637;DHT22;2331;48.806;9.140;2023-04-15T07:11:12;8.30;1.00
4637;DHT22;2331;48.806;9.140;2023-04-15T07:13:39;8.40;1.00
4637;DHT22;2331;48.806;9.140;2023-04-15T07:16:06;8.40;1.00
4637;DHT22;2331;48.806;9.140;2023-04-15T07:18:33;8.50;1.00
4637;DHT22;2331;48.806;9.140;2023-04-15T07:21:00;8.60;1.00
4637;DHT22;2331;48.806;9.140;2023-04-15T07:23:27;8.60;1.00
4637;DHT22;2331;48.806;9.140;2023-04-15T07:25:53;8.80;1.00
4637;DHT22;2331;48.806;9.140;2023-04-15T07:28:23;8.80;1.00
4637;DHT22;2331;48.806;9.140;2023-04-15T07:30:50;8.90;1.00
4637;DHT22;2331;48.806;9.140;2023-04-15T07:33:17;9.00;1.00
4637;DHT22;2331;48.806;9.140;2023-04-15T07:35:44;9.10;1.00
4637;DHT22;2331;48.806;9.140;2023-04-15T07:38:11;9.20;1.00
4637;DHT22;2331;48.806;9.140;2023-04-15T07:40:38;9.30;1.00
4637;DHT22;2331;48.806;9.140;2023-04-15T07:43:06;9.40;1.00
4637;DHT22;2331;48.806;9.140;2023-04-15T07:45:35;9.50;1.00
4637;DHT22;2331;48.806;9.140;2023-04-15T07:48:02;9.60;1.00
4637;DHT22;2331;48.806;9.140;2023-04-15T07:50:29;9.70;1.00
4637;DHT22;2331;48.806;9.140;2023-04-15T07:52:56;9.80;1.00
4637;DHT22;2331;48.806;9.140;2023-04-15T07:55:23;9.80;1.00
4637;DHT22;2331;48.806;9.140;2023-04-15T07:57:50;9.90;1.00
4637;DHT22;2331;48.806;9.140;2023-04-15T08:00:16;10.00;1.00
4637;DHT22;2331;48.806;9.140;2023-04-15T08:02:45;10.10;1.00
4637;DHT22;2331;48.806;9.140;2023-04-15T08:05:12;10.20;1.00
4637;DHT22;2331;48.806;9.140;2023-04-15T08:07:39;10.30;1.00
4637;DHT22;2331;48.806;9.140;2023-04-15T08:10:07;10.40;1.00
4637;DHT22;2331;48.806;9.140;2023-04-15T08:12:34;10.50;1.00
4637;DHT22;2331;48.806;9.140;2023-04-15T08:15:01;10.60;1.00
4637;DHT22;2331;48.806;9.140;2023-04-15T08:17:28;10.70;1.00
4637;DHT22;2331;48.806;9.140;2023-04-15T08:19:56;10.80;1.00
4637;DHT22;2331;48.806;9.140;2023-04-15T08:22:23;10.90;1.00
4637;DHT22;2331;48.806;9.140;2023-04-15T08:24:50;11.00;1.00
4637;DHT22;2331;48.806;9.140;2023-04-15T08:27:17;11.20;1.00
4637;DHT22;2331;48.806;9.140;2023-04-15T08:29:43;11.30;1.00
4637;DHT22;2331;48.806;9.140;2023-04-15T08:32:11;11.40;1.00
4637;DHT22;2331;48.806;9.140;2023-04-15T08:34:39;11.50;1.00
4637;DHT22;2331;48.806;9.140;2023-04-15T08:37:07;11.60;1.00
4637;DHT22;2331;48.806;9.140;2023-04-15T08:39:34;11.80;1.00
4637;DHT22;2331;48.806;9.140;2023-04-15T08:42:03;11.80;1.00
4637;DHT22;2331;48.806;9.140;2023-04-15T08:44:33;11.90;1.00
4637;DHT22;2331;48.806;9.140;2023-04-15T08:47:01;12.00;1.00
4637;DHT22;2331;48.806;9.140;2023-04-15T08:49:29;12.10;1.00
4637;DHT22;2331;48.806;9.140;2023-04-15T08:51:57;12.20;1.00
4637;DHT22;2331;48.806;9.140;2023-04-15T08:54:25;12.20;1.00
4637;DHT22;2331;48.806;9.140;2023-04-15T08:56:52;12.30;1.00
4637;DHT22;2331;48.806;9.140;2023-04-15T08:59:20;12.50;1.00
4637;DHT22;2331;48.806;9.140;2023-04-15T09:01:48;12.60;1.00
4637;DHT22;2331;48.806;9.140;2023-04-15T09:04:15;12.70;1.00
4637;DHT22;2331;48.806;9.140;2023-04-15T09:06:42;12.90;1.00
4637;DHT22;2331;48.806;9.140;2023-04-15T09:09:09;13.00;1.00
4637;DHT22;2331;48.806;9.140;2023-04-15T09:11:38;13.20;1.00
4637;DHT22;2331;48.806;9.140;2023-04-15T09:14:05;13.30;1.00
4637;DHT22;2331;48.806;9.140;2023-04-15T09:16:55;13.50;1.00
4637;DHT22;2331;48.806;9.140;2023-04-15T09:19:23;13.50;1.00
4637;DHT22;2331;48.806;9.140;2023-04-15T09:21:51;13.60;1.00
4637;DHT22;2331;48.806;9.140;2023-04-15T09:24:19;13.70;1.00
4637;DHT22;2331;48.806;9.140;2023-04-15T09:26:47;13.80;1.00
4637;DHT22;2331;48.806;9.140;2023-04-15T09:29:17;14.00;1.00
4637;DHT22;2331;48.806;9.140;2023-04-15T09:31:44;14.10;1.00
4637;DHT22;2331;48.806;9.140;2023-04-15T09:34:11;14.10;1.00
4637;DHT22;2331;48.806;9.140;2023-04-15T09:36:51;14.20;1.00
4637;DHT22;2331;48.806;9.140;2023-04-15T09:39:19;14.10;1.00
4637;DHT22;2331;48.806;9.140;2023-04-15T09:41:51;14.10;1.00
4637;DHT22;2331;48.806;9.140;2023-04-15T09:44:29;14.20;1.00
4637;DHT22;2331;48.806;9.140;2023-04-15T09:46:55;14.20;1.00
4637;DHT22;2331;48.806;9.140;2023-04-15T09:49:22;14.30;1.00
4637;DHT22;2331;48.806;9.140;2023-04-15T09:51:49;14.40;1.00
4637;DHT22;2331;48.806;9.140;2023-04-15T09:54:18;14.40;1.00
4637;DHT22;2331;48.806;9.140;2023-04-15T09:56:47;14.40;1.00
4637;DHT22;2331;48.806;9.140;2023-04-15T09:59:14;14.40;1.00
4637;DHT22;2331;48.806;9.140;2023-04-15T10:01:41;14.40;1.00
4637;DHT22;2331;48.806;9.140;2023-04-15T10:04:09;14.60;1.00
4637;DHT22;2331;48.806;9.140;2023-04-15T10:06:36;14.50;1.00
4637;DHT22;2331;48.806;9.140;2023-04-15T10:09:05;14.60;1.00
4637;DHT22;2331;48.806;9.140;2023-04-15T10:11:34;14.70;1.00
4637;DHT22;2331;48.806;9.140;2023-04-15T10:14:03;14.60;1.00
4637;DHT22;2331;48.806;9.140;2023-04-15T10:16:31;14.60;1.00
4637;DHT22;2331;48.806;9.140;2023-04-15T10:19:00;14.70;1.00
4637;DHT22;2331;48.806;9.140;2023-04-15T10:21:29;14.80;1.00
4637;DHT22;2331;48.806;9.140;2023-04-15T10:23:57;14.80;1.00
4637;DHT22;2331;48.806;9.140;2023-04-15T10:26:24;14.80;1.00
4637;DHT22;2331;48.806;9.140;2023-04-15T10:28:52;14.80;1.00
4637;DHT22;2331;48.806;9.140;2023-04-15T10:31:21;15.00;1.00
4637;DHT22;2331;48.806;9.140;2023-04-15T10:33:48;15.00;1.00
4637;DHT22;2331;48.806;9.140;2023-04-15T10:36:17;15.10;1.00
4637;DHT22;2331;48.806;9.140;2023-04-15T10:38:45;15.10;1.00
4637;DHT22;2331;48.806;9.140;2023-04-15T10:41:17;15.10;1.00
4637;DHT22;2331;48.806;9.140;2023-04-15T10:43:49;15.20;1.00
4637;DHT22;2331;48.806;9.140;2023-04-15T10:46:36;15.20;1.00
4637;DHT22;2331;48.806;9.140;2023-04-15T10:49:08;15.20;1.00
4637;DHT22;2331;48.806;9.140;2023-04-15T10:51:37;15.30;1.00
4637;DHT22;2331;48.806;9.140;2023-04-15T10:54:11;15.40;1.00
4637;DHT22;2331;48.806;9.140;2023-04-15T10:56:40;15.40;1.00
4637;DHT22;2331;48.806;9.140;2023-04-15T10:59:08;15.50;1.00
4637;DHT22;2331;48.806;9.140;2023-04-15T11:01:53;15.50;1.00
4637;DHT22;2331;48.806;9.140;2023-04-15T11:04:52;15.50;1.00
4637;DHT22;2331;48.806;9.140;2023-04-15T11:07:34;15.40;1.00
4637;DHT22;2331;48.806;9.140;2023-04-15T11:10:01;15.30;1.00
4637;DHT22;2331;48.806;9.140;2023-04-15T11:12:35;15.20;1.00
4637;DHT22;2331;48.806;9.140;2023-04-15T11:18:10;15.10;1.00
4637;DHT22;2331;48.806;9.140;2023-04-15T11:20:37;15.30;1.00
4637;DHT22;2331;48.806;9.140;2023-04-15T11:23:04;15.40;1.00
4637;DHT22;2331;48.806;9.140;2023-04-15T11:25:33;15.60;1.00
4637;DHT22;2331;48.806;9.140;2023-04-15T11:28:01;15.60;1.00
4637;DHT22;2331;48.806;9.140;2023-04-15T11:30:37;15.70;1.00
4637;DHT22;2331;48.806;9.140;2023-04-15T11:33:05;15.80;1.00
4637;DHT22;2331;48.806;9.140;2023-04-15T11:35:33;15.90;1.00
4637;DHT22;2331;48.806;9.140;2023-04-15T11:38:02;15.80;1.00
4637;DHT22;2331;48.806;9.140;2023-04-15T11:40:30;15.70;1.00
4637;DHT22;2331;48.806;9.140;2023-04-15T11:43:05;15.60;1.00
4637;DHT22;2331;48.806;9.140;2023-04-15T11:45:32;15.60;1.00
4637;DHT22;2331;48.806;9.140;2023-04-15T11:48:16;15.60;1.00
4637;DHT22;2331;48.806;9.140;2023-04-15T11:50:43;15.50;1.00
4637;DHT22;2331;48.806;9.140;2023-04-15T11:53:11;15.50;1.00
4637;DHT22;2331;48.806;9.140;2023-04-15T11:55:42;15.50;1.00
4637;DHT22;2331;48.806;9.140;2023-04-15T11:58:12;15.60;1.00
4637;DHT22;2331;48.806;9.140;2023-04-15T12:00:40;15.60;1.00
4637;DHT22;2331;48.806;9.140;2023-04-15T12:03:17;15.60;1.00
4637;DHT22;2331;48.806;9.140;2023-04-15T12:06:05;15.60;1.00
4637;DHT22;2331;48.806;9.140;2023-04-15T12:08:57;15.70;1.00
4637;DHT22;2331;48.806;9.140;2023-04-15T12:11:33;15.60;1.00
4637;DHT22;2331;48.806;9.140;2023-04-15T12:14:05;15.50;1.00
4637;DHT22;2331;48.806;9.140;2023-04-15T12:16:34;15.50;1.00
4637;DHT22;2331;48.806;9.140;2023-04-15T12:19:04;15.70;1.00
4637;DHT22;2331;48.806;9.140;2023-04-15T12:21:37;15.70;1.00
4637;DHT22;2331;48.806;9.140;2023-04-15T12:24:05;15.70;1.00
4637;DHT22;2331;48.806;9.140;2023-04-15T12:26:35;15.40;1.00
4637;DHT22;2331;48.806;9.140;2023-04-15T12:29:05;15.30;1.00
4637;DHT22;2331;48.806;9.140;2023-04-15T12:31:33;15.10;1.00
4637;DHT22;2331;48.806;9.140;2023-04-15T12:34:05;15.20;1.00
4637;DHT22;2331;48.806;9.140;2023-04-15T12:36:33;14.80;1.00
4637;DHT22;2331;48.806;9.140;2023-04-15T12:39:02;14.70;1.00
4637;DHT22;2331;48.806;9.140;2023-04-15T12:41:29;14.60;1.00
4637;DHT22;2331;48.806;9.140;2023-04-15T12:43:56;14.30;1.00
4637;DHT22;2331;48.806;9.140;2023-04-15T12:46:23;14.20;1.00
4637;DHT22;2331;48.806;9.140;2023-04-15T12:48:50;14.10;1.00
4637;DHT22;2331;48.806;9.140;2023-04-15T12:51:19;14.00;1.00
4637;DHT22;2331;48.806;9.140;2023-04-15T12:53:47;14.00;1.00
4637;DHT22;2331;48.806;9.140;2023-04-15T12:56:14;14.20;1.00
4637;DHT22;2331;48.806;9.140;2023-04-15T12:58:41;14.10;1.00
4637;DHT22;2331;48.806;9.140;2023-04-15T13:01:08;14.20;1.00
4637;DHT22;2331;48.806;9.140;2023-04-15T13:03:35;14.30;1.00
4637;DHT22;2331;48.806;9.140;2023-04-15T13:06:02;14.40;1.00
4637;DHT22;2331;48.806;9.140;2023-04-15T13:08:32;14.50;1.00
4637;DHT22;2331;48.806;9.140;2023-04-15T13:10:58;14.60;1.00
4637;DHT22;2331;48.806;9.140;2023-04-15T13:13:26;14.60;1.00
4637;DHT22;2331;48.806;9.140;2023-04-15T13:15:53;14.60;1.00
4637;DHT22;2331;48.806;9.140;2023-04-15T13:18:20;14.60;1.00
4637;DHT22;2331;48.806;9.140;2023-04-15T13:20:48;14.60;1.00
4637;DHT22;2331;48.806;9.140;2023-04-15T13:23:14;14.70;1.00
4637;DHT22;2331;48.806;9.140;2023-04-15T13:25:43;14.60;1.00
4637;DHT22;2331;48.806;9.140;2023-04-15T13:28:10;14.60;1.00
4637;DHT22;2331;48.806;9.140;2023-04-15T13:30:38;14.60;1.00
4637;DHT22;2331;48.806;9.140;2023-04-15T13:33:05;14.60;1.00
4637;DHT22;2331;48.806;9.140;2023-04-15T13:35:32;14.50;1.00
4637;DHT22;2331;48.806;9.140;2023-04-15T13:37:59;14.40;1.00
4637;DHT22;2331;48.806;9.140;2023-04-15T13:40:26;14.40;1.00
4637;DHT22;2331;48.806;9.140;2023-04-15T13:42:54;14.40;1.00
4637;DHT22;2331;48.806;9.140;2023-04-15T13:45:22;14.60;1.00
4637;DHT22;2331;48.806;9.140;2023-04-15T13:47:49;14.50;1.00
4637;DHT22;2331;48.806;9.140;2023-04-15T13:50:15;14.60;1.00
4637;DHT22;2331;48.806;9.140;2023-04-15T13:52:42;14.60;1.00
4637;DHT22;2331;48.806;9.140;2023-04-15T13:55:09;14.60;1.00
4637;DHT22;2331;48.806;9.140;2023-04-15T13:57:37;14.50;1.00
4637;DHT22;2331;48.806;9.140;2023-04-15T14:00:07;14.60;1.00
4637;DHT22;2331;48.806;9.140;2023-04-15T14:02:33;14.50;1.00
4637;DHT22;2331;48.806;9.140;2023-04-15T14:05:01;14.60;1.00
4637;DHT22;2331;48.806;9.140;2023-04-15T14:07:28;14.60;1.00
4637;DHT22;2331;48.806;9.140;2023-04-15T14:09:55;14.60;1.00
4637;DHT22;2331;48.806;9.140;2023-04-15T14:12:22;14.40;1.00
4637;DHT22;2331;48.806;9.140;2023-04-15T14:14:50;14.20;1.00
4637;DHT22;2331;48.806;9.140;2023-04-15T14:17:18;14.20;1.00
4637;DHT22;2331;48.806;9.140;2023-04-15T14:19:46;13.80;1.00
4637;DHT22;2331;48.806;9.140;2023-04-15T14:22:12;14.00;1.00
4637;DHT22;2331;48.806;9.140;2023-04-15T14:24:39;13.90;1.00
4637;DHT22;2331;48.806;9.140;2023-04-15T14:27:06;13.80;1.00
4637;DHT22;2331;48.806;9.140;2023-04-15T14:29:35;13.90;1.00
4637;DHT22;2331;48.806;9.140;2023-04-15T14:32:02;14.00;1.00
4637;DHT22;2331;48.806;9.140;2023-04-15T14:34:30;14.10;1.00
4637;DHT22;2331;48.806;9.140;2023-04-15T14:36:57;14.00;1.00
4637;DHT22;2331;48.806;9.140;2023-04-15T14:39:24;14.00;1.00
4637;DHT22;2331;48.806;9.140;2023-04-15T14:41:51;13.90;1.00
4637;DHT22;2331;48.806;9.140;2023-04-15T14:44:18;14.00;1.00
4637;DHT22;2331;48.806;9.140;2023-04-15T14:46:45;14.00;1.00
4637;DHT22;2331;48.806;9.140;2023-04-15T14:49:12;13.70;1.00
4637;DHT22;2331;48.806;9.140;2023-04-15T14:51:40;13.60;1.00
4637;DHT22;2331;48.806;9.140;2023-04-15T14:54:08;13.60;1.00
4637;DHT22;2331;48.806;9.140;2023-04-15T14:56:35;13.50;1.00
4637;DHT22;2331;48.806;9.140;2023-04-15T14:59:01;13.20;1.00
4637;DHT22;2331;48.806;9.140;2023-04-15T15:01:28;13.20;1.00
4637;DHT22;2331;48.806;9.140;2023-04-15T15:03:55;13.00;1.00
4637;DHT22;2331;48.806;9.140;2023-04-15T15:06:22;12.80;1.00
4637;DHT22;2331;48.806;9.140;2023-04-15T15:08:51;12.80;1.00
4637;DHT22;2331;48.806;9.140;2023-04-15T15:11:17;12.70;1.00
4637;DHT22;2331;48.806;9.140;2023-04-15T15:13:44;12.60;1.00
4637;DHT22;2331;48.806;9.140;2023-04-15T15:16:11;12.60;1.00
4637;DHT22;2331;48.806;9.140;2023-04-15T15:18:38;12.50;1.00
4637;DHT22;2331;48.806;9.140;2023-04-15T15:21:05;12.50;1.00
4637;DHT22;2331;48.806;9.140;2023-04-15T15:23:31;12.60;1.00
4637;DHT22;2331;48.806;9.140;2023-04-15T15:26:00;12.80;1.00
4637;DHT22;2331;48.806;9.140;2023-04-15T15:28:26;12.70;1.00
4637;DHT22;2331;48.806;9.140;2023-04-15T15:30:53;12.80;1.00
4637;DHT22;2331;48.806;9.140;2023-04-15T15:33:20;12.90;1.00
4637;DHT22;2331;48.806;9.140;2023-04-15T15:35:47;13.00;1.00
4637;DHT22;2331;48.806;9.140;2023-04-15T15:38:14;13.00;1.00
4637;DHT22;2331;48.806;9.140;2023-04-15T15:40:42;13.00;1.00
4637;DHT22;2331;48.806;9.140;2023-04-15T15:43:12;12.90;1.00
4637;DHT22;2331;48.806;9.140;2023-04-15T15:45:39;13.00;1.00
4637;DHT22;2331;48.806;9.140;2023-04-15T15:48:06;13.00;1.00
4637;DHT22;2331;48.806;9.140;2023-04-15T15:50:33;12.90;1.00
4637;DHT22;2331;48.806;9.140;2023-04-15T15:53:01;12.80;1.00
4637;DHT22;2331;48.806;9.140;2023-04-15T15:55:28;12.80;1.00
4637;DHT22;2331;48.806;9.140;2023-04-15T15:57:55;12.70;1.00
4637;DHT22;2331;48.806;9.140;2023-04-15T16:00:23;12.70;1.00
4637;DHT22;2331;48.806;9.140;2023-04-15T16:02:54;12.90;1.00
4637;DHT22;2331;48.806;9.140;2023-04-15T16:05:22;12.90;1.00
4637;DHT22;2331;48.806;9.140;2023-04-15T16:07:48;12.80;1.00
4637;DHT22;2331;48.806;9.140;2023-04-15T16:10:16;12.80;1.00
4637;DHT22;2331;48.806;9.140;2023-04-15T16:12:43;12.80;1.00
4637;DHT22;2331;48.806;9.140;2023-04-15T16:15:11;12.70;1.00
4637;DHT22;2331;48.806;9.140;2023-04-15T16:17:39;12.70;1.00
4637;DHT22;2331;48.806;9.140;2023-04-15T16:20:07;12.60;1.00
4637;DHT22;2331;48.806;9.140;2023-04-15T16:22:34;12.60;1.00
4637;DHT22;2331;48.806;9.140;2023-04-15T16:25:01;12.60;1.00
4637;DHT22;2331;48.806;9.140;2023-04-15T16:27:28;12.70;1.00
4637;DHT22;2331;48.806;9.140;2023-04-15T16:29:54;12.60;1.00
4637;DHT22;2331;48.806;9.140;2023-04-15T16:32:21;12.60;1.00
4637;DHT22;2331;48.806;9.140;2023-04-15T16:34:50;12.50;1.00